sensor_id;sensor_type;location;lat;lon;timestamp;temperature;humidity
5802;DHT22;2927;49.366;8.530;2023-07-29T00:02:08;18.00;99.90
5802;DHT22;2927;49.366;8.530;2023-07-29T00:04:33;18.00;99.90
5802;DHT22;2927;49.366;8.530;2023-07-29T00:06:59;18.00;99.90
5802;DHT22;2927;49.366;8.530;2023-07-29T00:09:24;18.00;99.90
5802;DHT22;2927;49.366;8.530;2023-07-29T00:11:50;18.00;99.90
5802;DHT22;2927;49.366;8.530;2023-07-29T00:14:15;17.90;99.90
5802;DHT22;2927;49.366;8.530;2023-07-29T00:16:41;18.00;99.90
5802;DHT22;2927;49.366;8.530;2023-07-29T00:19:08;18.00;99.90
5802;DHT22;2927;49.366;8.530;2023-07-29T00:21:33;18.00;99.90
5802;DHT22;2927;49.366;8.530;2023-07-29T00:23:59;18.00;99.90
5802;DHT22;2927;49.366;8.530;2023-07-29T00:26:26;18.00;99.90
5802;DHT22;2927;49.366;8.530;2023-07-29T00:28:57;18.00;99.90
5802;DHT22;2927;49.366;8.530;2023-07-29T00:31:22;18.00;99.90
5802;DHT22;2927;49.366;8.530;2023-07-29T00:33:48;17.90;99.90
5802;DHT22;2927;49.366;8.530;2023-07-29T00:36:13;17.90;99.90
5802;DHT22;2927;49.366;8.530;2023-07-29T00:38:39;17.90;99.90
5802;DHT22;2927;49.366;8.530;2023-07-29T00:41:05;17.90;99.90
5802;DHT22;2927;49.366;8.530;2023-07-29T00:43:31;17.90;99.90
5802;DHT22;2927;49.366;8.530;2023-07-29T00:45:56;17.90;99.90
5802;DHT22;2927;49.366;8.530;2023-07-29T00:48:23;17.90;99.90
5802;DHT22;2927;49.366;8.530;2023-07-29T00:50:49;17.90;99.90
5802;DHT22;2927;49.366;8.530;2023-07-29T00:53:15;17.90;99.90
5802;DHT22;2927;49.366;8.530;2023-07-29T00:55:41;17.80;99.90
5802;DHT22;2927;49.366;8.530;2023-07-29T00:58:07;17.80;99.90
5802;DHT22;2927;49.366;8.530;2023-07-29T01:00:32;17.80;99.90
5802;DHT22;2927;49.366;8.530;2023-07-29T01:02:58;17.80;99.90
5802;DHT22;2927;49.366;8.530;2023-07-29T01:05:32;17.80;99.90
5802;DHT22;2927;49.366;8.530;2023-07-29T01:08:21;17.80;99.90
5802;DHT22;2927;49.366;8.530;2023-07-29T01:11:01;17.80;99.90
5802;DHT22;2927;49.366;8.530;2023-07-29T01:13:37;17.80;99.90
5802;DHT22;2927;49.366;8.530;2023-07-29T01:16:15;17.80;99.90
5802;DHT22;2927;49.366;8.530;2023-07-29T01:18:43;17.80;99.90
5802;DHT22;2927;49.366;8.530;2023-07-29T01:21:11;17.90;99.90
5802;DHT22;2927;49.366;8.530;2023-07-29T01:23:38;17.90;99.90
5802;DHT22;2927;49.366;8.530;2023-07-29T01:26:04;17.90;99.90
5802;DHT22;2927;49.366;8.530;2023-07-29T01:28:30;17.80;99.90
5802;DHT22;2927;49.366;8.530;2023-07-29T01:31:10;17.80;99.90
5802;DHT22;2927;49.366;8.530;2023-07-29T01:33:42;17.80;99.90
5802;DHT22;2927;49.366;8.530;2023-07-29T01:36:21;17.80;99.90
5802;DHT22;2927;49.366;8.530;2023-07-29T01:38:48;17.80;99.90
5802;DHT22;2927;49.366;8.530;2023-07-29T01:41:15;17.80;99.90
5802;DHT22;2927;49.366;8.530;2023-07-29T01:43:42;17.80;99.90
5802;DHT22;2927;49.366;8.530;2023-07-29T01:46:15;17.80;99.90
5802;DHT22;2927;49.366;8.530;2023-07-29T01:48:41;17.80;99.90
5802;DHT22;2927;49.366;8.530;2023-07-29T01:51:07;17.80;99.90
5802;DHT22;2927;49.366;8.530;2023-07-29T01:53:33;17.80;99.90
5802;DHT22;2927;49.366;8.530;2023-07-29T01:55:58;17.80;99.90
5802;DHT22;2927;49.366;8.530;2023-07-29T01:58:24;17.80;99.90
5802;DHT22;2927;49.366;8.530;2023-07-29T02:00:50;17.80;99.90
5802;DHT22;2927;49.366;8.530;2023-07-29T02:03:16;17.80;99.90
5802;DHT22;2927;49.366;8.530;2023-07-29T02:05:41;17.80;99.90
5802;DHT22;2927;49.366;8.530;2023-07-29T02:08:09;17.80;99.90
5802;DHT22;2927;49.366;8.530;2023-07-29T02:10:34;17.70;99.90
5802;DHT22;2927;49.366;8.530;2023-07-29T02:13:00;17.70;99.90
5802;DHT22;2927;49.366;8.530;2023-07-29T02:15:25;17.70;99.90
5802;DHT22;2927;49.366;8.530;2023-07-29T02:17:51;17.70;99.90
5802;DHT22;2927;49.366;8.530;2023-07-29T02:20:17;17.70;99.90
5802;DHT22;2927;49.366;8.530;2023-07-29T02:22:43;17.70;99.90
5802;DHT22;2927;49.366;8.530;2023-07-29T02:25:08;17.70;99.90
5802;DHT22;2927;49.366;8.530;2023-07-29T02:27:35;17.70;99.90
5802;DHT22;2927;49.366;8.530;2023-07-29T02:30:01;17.70;99.90
5802;DHT22;2927;49.366;8.530;2023-07-29T02:32:26;17.70;99.90
5802;DHT22;2927;49.366;8.530;2023-07-29T02:34:52;17.70;99.90
5802;DHT22;2927;49.366;8.530;2023-07-29T02:37:18;17.70;99.90
5802;DHT22;2927;49.366;8.530;2023-07-29T02:39:43;17.70;99.90
5802;DHT22;2927;49.366;8.530;2023-07-29T02:42:08;17.70;99.90
5802;DHT22;2927;49.366;8.530;2023-07-29T02:44:34;17.70;99.90
5802;DHT22;2927;49.366;8.530;2023-07-29T02:47:00;17.60;99.90
5802;DHT22;2927;49.366;8.530;2023-07-29T02:49:25;17.60;99.90
5802;DHT22;2927;49.366;8.530;2023-07-29T02:51:51;17.60;99.90
5802;DHT22;2927;49.366;8.530;2023-07-29T02:54:16;17.60;99.90
5802;DHT22;2927;49.366;8.530;2023-07-29T02:56:42;17.60;99.90
5802;DHT22;2927;49.366;8.530;2023-07-29T02:59:07;17.60;99.90
5802;DHT22;2927;49.366;8.530;2023-07-29T03:01:33;17.60;99.90
5802;DHT22;2927;49.366;8.530;2023-07-29T03:03:58;17.60;99.90
5802;DHT22;2927;49.366;8.530;2023-07-29T03:06:24;17.60;99.90
5802;DHT22;2927;49.366;8.530;2023-07-29T03:08:50;17.60;99.90
5802;DHT22;2927;49.366;8.530;2023-07-29T03:11:16;17.60;99.90
5802;DHT22;2927;49.366;8.530;2023-07-29T03:13:42;17.60;99.90
5802;DHT22;2927;49.366;8.530;2023-07-29T03:16:15;17.50;99.90
5802;DHT22;2927;49.366;8.530;2023-07-29T03:18:42;17.60;99.90
5802;DHT22;2927;49.366;8.530;2023-07-29T03:21:08;17.60;99.90
5802;DHT22;2927;49.366;8.530;2023-07-29T03:23:34;17.60;99.90
5802;DHT22;2927;49.366;8.530;2023-07-29T03:26:01;17.60;99.90
5802;DHT22;2927;49.366;8.530;2023-07-29T03:28:32;17.60;99.90
5802;DHT22;2927;49.366;8.530;2023-07-29T03:30:58;17.60;99.90
5802;DHT22;2927;49.366;8.530;2023-07-29T03:33:25;17.60;99.90
5802;DHT22;2927;49.366;8.530;2023-07-29T03:35:51;17.60;99.90
5802;DHT22;2927;49.366;8.530;2023-07-29T03:38:17;17.60;99.90
5802;DHT22;2927;49.366;8.530;2023-07-29T03:40:43;17.70;99.90
5802;DHT22;2927;49.366;8.530;2023-07-29T03:43:09;17.70;99.90
5802;DHT22;2927;49.366;8.530;2023-07-29T03:45:35;17.80;99.90
5802;DHT22;2927;49.366;8.530;2023-07-29T03:48:01;17.80;99.90
5802;DHT22;2927;49.366;8.530;2023-07-29T03:50:28;17.80;99.90
5802;DHT22;2927;49.366;8.530;2023-07-29T03:52:54;17.80;99.90
5802;DHT22;2927;49.366;8.530;2023-07-29T03:55:20;17.80;99.90
5802;DHT22;2927;49.366;8.530;2023-07-29T03:57:46;17.80;99.90
5802;DHT22;2927;49.366;8.530;2023-07-29T04:00:12;17.80;99.90
5802;DHT22;2927;49.366;8.530;2023-07-29T04:02:37;17.80;99.90
5802;DHT22;2927;49.366;8.530;2023-07-29T04:05:05;17.80;99.90
5802;DHT22;2927;49.366;8.530;2023-07-29T04:07:31;17.80;99.90
5802;DHT22;2927;49.366;8.530;2023-07-29T04:09:57;17.80;99.90
5802;DHT22;2927;49.366;8.530;2023-07-29T04:12:23;17.90;99.90
5802;DHT22;2927;49.366;8.530;2023-07-29T04:14:48;17.90;99.90
5802;DHT22;2927;49.366;8.530;2023-07-29T04:17:14;17.90;99.90
5802;DHT22;2927;49.366;8.530;2023-07-29T04:19:40;18.00;99.90
5802;DHT22;2927;49.366;8.530;2023-07-29T04:22:05;18.10;99.90
5802;DHT22;2927;49.366;8.530;2023-07-29T04:24:31;18.10;99.90
5802;DHT22;2927;49.366;8.530;2023-07-29T04:26:56;18.10;99.90
5802;DHT22;2927;49.366;8.530;2023-07-29T04:29:22;18.10;99.90
5802;DHT22;2927;49.366;8.530;2023-07-29T04:31:49;18.10;99.90
5802;DHT22;2927;49.366;8.530;2023-07-29T04:34:14;18.20;99.90
5802;DHT22;2927;49.366;8.530;2023-07-29T04:36:40;18.20;99.90
5802;DHT22;2927;49.366;8.530;2023-07-29T04:39:06;18.10;99.90
5802;DHT22;2927;49.366;8.530;2023-07-29T04:41:31;18.10;99.90
5802;DHT22;2927;49.366;8.530;2023-07-29T04:43:57;18.10;99.90
5802;DHT22;2927;49.366;8.530;2023-07-29T04:46:22;18.00;99.90
5802;DHT22;2927;49.366;8.530;2023-07-29T04:48:48;18.00;99.90
5802;DHT22;2927;49.366;8.530;2023-07-29T04:51:13;17.90;99.90
5802;DHT22;2927;49.366;8.530;2023-07-29T04:53:39;17.90;99.90
5802;DHT22;2927;49.366;8.530;2023-07-29T04:56:04;17.80;99.90
5802;DHT22;2927;49.366;8.530;2023-07-29T04:58:30;17.80;99.90
5802;DHT22;2927;49.366;8.530;2023-07-29T05:00:59;17.80;99.90
5802;DHT22;2927;49.366;8.530;2023-07-29T05:03:25;17.80;99.90
5802;DHT22;2927;49.366;8.530;2023-07-29T05:05:51;17.80;99.90
5802;DHT22;2927;49.366;8.530;2023-07-29T05:08:18;17.80;99.90
5802;DHT22;2927;49.366;8.530;2023-07-29T05:10:44;17.80;99.90
5802;DHT22;2927;49.366;8.530;2023-07-29T05:13:10;17.80;99.90
5802;DHT22;2927;49.366;8.530;2023-07-29T05:15:35;17.90;99.90
5802;DHT22;2927;49.366;8.530;2023-07-29T05:18:01;17.90;99.90
5802;DHT22;2927;49.366;8.530;2023-07-29T05:20:26;17.90;99.90
5802;DHT22;2927;49.366;8.530;2023-07-29T05:22:52;17.80;99.90
5802;DHT22;2927;49.366;8.530;2023-07-29T05:25:17;17.80;99.90
5802;DHT22;2927;49.366;8.530;2023-07-29T05:27:43;17.70;99.90
5802;DHT22;2927;49.366;8.530;2023-07-29T05:30:08;17.80;99.90
5802;DHT22;2927;49.366;8.530;2023-07-29T05:32:34;17.80;99.90
5802;DHT22;2927;49.366;8.530;2023-07-29T05:34:59;17.70;99.90
5802;DHT22;2927;49.366;8.530;2023-07-29T05:37:25;17.80;99.90
5802;DHT22;2927;49.366;8.530;2023-07-29T05:39:50;17.80;99.90
5802;DHT22;2927;49.366;8.530;2023-07-29T05:42:16;17.80;99.90
5802;DHT22;2927;49.366;8.530;2023-07-29T05:44:41;17.80;99.90
5802;DHT22;2927;49.366;8.530;2023-07-29T05:47:07;17.80;99.90
5802;DHT22;2927;49.366;8.530;2023-07-29T05:49:32;17.90;99.90
5802;DHT22;2927;49.366;8.530;2023-07-29T05:51:58;17.90;99.90
5802;DHT22;2927;49.366;8.530;2023-07-29T05:54:23;17.90;99.90
5802;DHT22;2927;49.366;8.530;2023-07-29T05:56:49;17.90;99.90
5802;DHT22;2927;49.366;8.530;2023-07-29T05:59:14;17.90;99.90
5802;DHT22;2927;49.366;8.530;2023-07-29T06:01:40;17.90;99.90
5802;DHT22;2927;49.366;8.530;2023-07-29T06:04:05;18.00;99.90
5802;DHT22;2927;49.366;8.530;2023-07-29T06:06:31;18.10;99.90
5802;DHT22;2927;49.366;8.530;2023-07-29T06:08:56;18.10;99.90
5802;DHT22;2927;49.366;8.530;2023-07-29T06:11:23;18.20;99.90
5802;DHT22;2927;49.366;8.530;2023-07-29T06:13:48;18.30;99.90
5802;DHT22;2927;49.366;8.530;2023-07-29T06:16:14;18.40;99.90
5802;DHT22;2927;49.366;8.530;2023-07-29T06:18:39;18.50;99.90
5802;DHT22;2927;49.366;8.530;2023-07-29T06:21:05;18.70;99.90
5802;DHT22;2927;49.366;8.530;2023-07-29T06:23:33;18.70;99.90
5802;DHT22;2927;49.366;8.530;2023-07-29T06:25:59;18.80;99.90
5802;DHT22;2927;49.366;8.530;2023-07-29T06:28:26;18.80;99.90
5802;DHT22;2927;49.366;8.530;2023-07-29T06:30:52;19.40;99.90
5802;DHT22;2927;49.366;8.530;2023-07-29T06:33:17;19.20;99.90
5802;DHT22;2927;49.366;8.530;2023-07-29T06:35:43;19.00;99.90
5802;DHT22;2927;49.366;8.530;2023-07-29T06:38:08;18.90;99.90
5802;DHT22;2927;49.366;8.530;2023-07-29T06:40:34;18.80;99.90
5802;DHT22;2927;49.366;8.530;2023-07-29T06:43:00;18.90;99.90
5802;DHT22;2927;49.366;8.530;2023-07-29T06:45:26;18.80;99.90
5802;DHT22;2927;49.366;8.530;2023-07-29T06:47:52;18.90;99.90
5802;DHT22;2927;49.366;8.530;2023-07-29T06:50:17;19.00;99.90
5802;DHT22;2927;49.366;8.530;2023-07-29T06:52:43;19.10;99.90
5802;DHT22;2927;49.366;8.530;2023-07-29T06:55:08;19.30;99.90
5802;DHT22;2927;49.366;8.530;2023-07-29T06:57:34;19.20;99.90
5802;DHT22;2927;49.366;8.530;2023-07-29T07:00:00;19.30;99.90
5802;DHT22;2927;49.366;8.530;2023-07-29T07:02:25;19.20;99.90
5802;DHT22;2927;49.366;8.530;2023-07-29T07:04:51;19.40;99.90
5802;DHT22;2927;49.366;8.530;2023-07-29T07:07:16;19.40;99.90
5802;DHT22;2927;49.366;8.530;2023-07-29T07:09:42;19.70;99.90
5802;DHT22;2927;49.366;8.530;2023-07-29T07:12:07;19.80;99.90
5802;DHT22;2927;49.366;8.530;2023-07-29T07:14:33;20.00;99.90
5802;DHT22;2927;49.366;8.530;2023-07-29T07:16:59;20.30;99.90
5802;DHT22;2927;49.366;8.530;2023-07-29T07:19:24;21.30;99.90
5802;DHT22;2927;49.366;8.530;2023-07-29T07:21:50;21.50;99.90
5802;DHT22;2927;49.366;8.530;2023-07-29T07:24:15;22.30;99.90
5802;DHT22;2927;49.366;8.530;2023-07-29T07:26:41;23.20;99.90
5802;DHT22;2927;49.366;8.530;2023-07-29T07:29:06;23.80;99.90
5802;DHT22;2927;49.366;8.530;2023-07-29T07:31:33;24.80;99.90
5802;DHT22;2927;49.366;8.530;2023-07-29T07:33:59;25.40;99.90
5802;DHT22;2927;49.366;8.530;2023-07-29T07:36:26;25.20;99.90
5802;DHT22;2927;49.366;8.530;2023-07-29T07:38:51;24.50;99.90
5802;DHT22;2927;49.366;8.530;2023-07-29T07:41:17;24.10;99.90
5802;DHT22;2927;49.366;8.530;2023-07-29T07:43:42;23.20;99.90
5802;DHT22;2927;49.366;8.530;2023-07-29T07:46:08;22.80;99.90
5802;DHT22;2927;49.366;8.530;2023-07-29T07:48:33;22.50;99.90
5802;DHT22;2927;49.366;8.530;2023-07-29T07:50:59;22.30;99.90
5802;DHT22;2927;49.366;8.530;2023-07-29T07:53:25;22.10;99.90
5802;DHT22;2927;49.366;8.530;2023-07-29T07:55:51;22.00;99.90
5802;DHT22;2927;49.366;8.530;2023-07-29T07:58:17;22.00;99.90
5802;DHT22;2927;49.366;8.530;2023-07-29T08:00:42;21.80;99.90
5802;DHT22;2927;49.366;8.530;2023-07-29T08:03:08;21.90;99.90
5802;DHT22;2927;49.366;8.530;2023-07-29T08:05:33;21.70;99.90
5802;DHT22;2927;49.366;8.530;2023-07-29T08:07:59;21.60;99.90
5802;DHT22;2927;49.366;8.530;2023-07-29T08:10:25;21.50;99.90
5802;DHT22;2927;49.366;8.530;2023-07-29T08:12:50;21.50;99.90
5802;DHT22;2927;49.366;8.530;2023-07-29T08:15:16;21.40;99.90
5802;DHT22;2927;49.366;8.530;2023-07-29T08:17:41;21.30;99.90
5802;DHT22;2927;49.366;8.530;2023-07-29T08:20:07;21.30;99.90
5802;DHT22;2927;49.366;8.530;2023-07-29T08:22:33;21.20;99.90
5802;DHT22;2927;49.366;8.530;2023-07-29T08:24:58;21.20;99.90
5802;DHT22;2927;49.366;8.530;2023-07-29T08:27:24;21.30;99.90
5802;DHT22;2927;49.366;8.530;2023-07-29T08:29:49;21.60;99.90
5802;DHT22;2927;49.366;8.530;2023-07-29T08:32:15;21.80;99.90
5802;DHT22;2927;49.366;8.530;2023-07-29T08:34:40;21.90;99.90
5802;DHT22;2927;49.366;8.530;2023-07-29T08:37:06;21.70;99.90
5802;DHT22;2927;49.366;8.530;2023-07-29T08:39:32;21.80;99.90
5802;DHT22;2927;49.366;8.530;2023-07-29T08:42:01;22.10;99.90
5802;DHT22;2927;49.366;8.530;2023-07-29T08:44:35;22.30;99.90
5802;DHT22;2927;49.366;8.530;2023-07-29T08:47:02;22.40;99.90
5802;DHT22;2927;49.366;8.530;2023-07-29T08:49:28;22.70;99.90
5802;DHT22;2927;49.366;8.530;2023-07-29T08:51:55;22.80;99.90
5802;DHT22;2927;49.366;8.530;2023-07-29T08:54:22;22.60;99.90
5802;DHT22;2927;49.366;8.530;2023-07-29T08:56:48;22.40;99.90
5802;DHT22;2927;49.366;8.530;2023-07-29T08:59:14;22.50;99.90
5802;DHT22;2927;49.366;8.530;2023-07-29T09:01:41;22.50;99.90
5802;DHT22;2927;49.366;8.530;2023-07-29T09:04:07;22.50;99.90
5802;DHT22;2927;49.366;8.530;2023-07-29T09:06:33;23.20;99.90
5802;DHT22;2927;49.366;8.530;2023-07-29T09:09:01;24.30;99.90
5802;DHT22;2927;49.366;8.530;2023-07-29T09:11:28;25.60;99.90
5802;DHT22;2927;49.366;8.530;2023-07-29T09:13:54;27.40;99.90
5802;DHT22;2927;49.366;8.530;2023-07-29T09:16:20;28.60;1.00
5802;DHT22;2927;49.366;8.530;2023-07-29T09:18:50;28.70;99.90
5802;DHT22;2927;49.366;8.530;2023-07-29T09:21:17;29.50;1.00
5802;DHT22;2927;49.366;8.530;2023-07-29T09:23:43;30.00;99.90
5802;DHT22;2927;49.366;8.530;2023-07-29T09:26:09;30.00;1.00
5802;DHT22;2927;49.366;8.530;2023-07-29T09:28:37;30.30;99.90
5802;DHT22;2927;49.366;8.530;2023-07-29T09:31:03;30.00;1.00
5802;DHT22;2927;49.366;8.530;2023-07-29T09:33:32;30.60;1.00
5802;DHT22;2927;49.366;8.530;2023-07-29T09:36:00;31.40;99.90
5802;DHT22;2927;49.366;8.530;2023-07-29T09:38:27;31.80;1.00
5802;DHT22;2927;49.366;8.530;2023-07-29T09:40:55;31.50;1.00
5802;DHT22;2927;49.366;8.530;2023-07-29T09:43:34;31.70;57.40
5802;DHT22;2927;49.366;8.530;2023-07-29T09:46:05;31.10;1.00
5802;DHT22;2927;49.366;8.530;2023-07-29T09:48:36;29.90;1.00
5802;DHT22;2927;49.366;8.530;2023-07-29T09:51:13;30.70;1.00
5802;DHT22;2927;49.366;8.530;2023-07-29T09:53:50;31.30;1.00
5802;DHT22;2927;49.366;8.530;2023-07-29T09:56:16;30.40;1.00
5802;DHT22;2927;49.366;8.530;2023-07-29T09:58:45;30.30;1.00
5802;DHT22;2927;49.366;8.530;2023-07-29T10:01:12;30.00;1.00
5802;DHT22;2927;49.366;8.530;2023-07-29T10:03:37;31.20;1.00
5802;DHT22;2927;49.366;8.530;2023-07-29T10:06:07;32.00;99.90
5802;DHT22;2927;49.366;8.530;2023-07-29T10:08:33;31.00;99.90
5802;DHT22;2927;49.366;8.530;2023-07-29T10:11:08;29.70;1.00
5802;DHT22;2927;49.366;8.530;2023-07-29T10:13:35;29.40;99.90
5802;DHT22;2927;49.366;8.530;2023-07-29T10:16:01;29.40;99.90
5802;DHT22;2927;49.366;8.530;2023-07-29T10:18:29;29.30;1.00
5802;DHT22;2927;49.366;8.530;2023-07-29T10:20:57;28.70;99.90
5802;DHT22;2927;49.366;8.530;2023-07-29T10:23:25;28.30;33.40
5802;DHT22;2927;49.366;8.530;2023-07-29T10:26:05;27.70;99.90
5802;DHT22;2927;49.366;8.530;2023-07-29T10:28:31;28.00;1.00
5802;DHT22;2927;49.366;8.530;2023-07-29T10:30:57;27.80;1.00
5802;DHT22;2927;49.366;8.530;2023-07-29T10:33:24;27.30;92.10
5802;DHT22;2927;49.366;8.530;2023-07-29T10:35:50;26.90;1.00
5802;DHT22;2927;49.366;8.530;2023-07-29T10:38:16;27.00;1.00
5802;DHT22;2927;49.366;8.530;2023-07-29T10:40:47;27.40;33.40
5802;DHT22;2927;49.366;8.530;2023-07-29T10:43:31;27.70;1.00
5802;DHT22;2927;49.366;8.530;2023-07-29T10:45:57;27.30;1.00
5802;DHT22;2927;49.366;8.530;2023-07-29T10:51:23;26.50;1.00
5802;DHT22;2927;49.366;8.530;2023-07-29T10:53:57;26.70;38.20
5802;DHT22;2927;49.366;8.530;2023-07-29T10:56:36;26.90;99.90
5802;DHT22;2927;49.366;8.530;2023-07-29T10:59:30;26.90;99.90
5802;DHT22;2927;49.366;8.530;2023-07-29T11:01:58;27.20;1.00
5802;DHT22;2927;49.366;8.530;2023-07-29T11:04:24;27.30;99.90
5802;DHT22;2927;49.366;8.530;2023-07-29T11:12:32;27.60;1.00
5802;DHT22;2927;49.366;8.530;2023-07-29T11:14:51;27.70;1.00
5802;DHT22;2927;49.366;8.530;2023-07-29T11:17:17;27.60;99.90
5802;DHT22;2927;49.366;8.530;2023-07-29T11:19:44;27.50;99.90
5802;DHT22;2927;49.366;8.530;2023-07-29T11:22:11;27.50;1.00
5802;DHT22;2927;49.366;8.530;2023-07-29T11:24:37;27.50;99.90
5802;DHT22;2927;49.366;8.530;2023-07-29T11:27:02;27.60;1.00
5802;DHT22;2927;49.366;8.530;2023-07-29T11:29:28;27.80;99.90
5802;DHT22;2927;49.366;8.530;2023-07-29T11:31:54;27.80;1.00
5802;DHT22;2927;49.366;8.530;2023-07-29T11:34:33;27.80;1.00
5802;DHT22;2927;49.366;8.530;2023-07-29T11:36:59;28.00;1.00
5802;DHT22;2927;49.366;8.530;2023-07-29T11:39:25;28.00;1.00
5802;DHT22;2927;49.366;8.530;2023-07-29T11:41:50;27.70;1.00
5802;DHT22;2927;49.366;8.530;2023-07-29T11:44:19;27.60;1.00
5802;DHT22;2927;49.366;8.530;2023-07-29T11:46:44;27.60;1.00
5802;DHT22;2927;49.366;8.530;2023-07-29T11:49:10;27.70;99.90
5802;DHT22;2927;49.366;8.530;2023-07-29T11:51:39;27.40;99.90
5802;DHT22;2927;49.366;8.530;2023-07-29T11:54:06;27.40;1.00
5802;DHT22;2927;49.366;8.530;2023-07-29T11:56:32;27.50;1.00
5802;DHT22;2927;49.366;8.530;2023-07-29T11:58:58;27.50;1.00
5802;DHT22;2927;49.366;8.530;2023-07-29T12:01:23;27.30;99.90
5802;DHT22;2927;49.366;8.530;2023-07-29T12:03:50;27.50;1.00
5802;DHT22;2927;49.366;8.530;2023-07-29T12:06:16;27.70;1.00
5802;DHT22;2927;49.366;8.530;2023-07-29T12:08:42;27.80;1.00
5802;DHT22;2927;49.366;8.530;2023-07-29T12:11:09;27.70;99.90
5802;DHT22;2927;49.366;8.530;2023-07-29T12:13:36;27.60;99.90
5802;DHT22;2927;49.366;8.530;2023-07-29T12:16:02;27.60;99.90
5802;DHT22;2927;49.366;8.530;2023-07-29T12:18:36;27.70;99.90
5802;DHT22;2927;49.366;8.530;2023-07-29T12:21:02;27.70;99.90
5802;DHT22;2927;49.366;8.530;2023-07-29T12:23:29;27.80;99.90
5802;DHT22;2927;49.366;8.530;2023-07-29T12:25:59;27.80;99.90
5802;DHT22;2927;49.366;8.530;2023-07-29T12:28:25;27.90;99.90
5802;DHT22;2927;49.366;8.530;2023-07-29T12:30:57;27.50;99.90
5802;DHT22;2927;49.366;8.530;2023-07-29T12:33:33;27.50;99.90
5802;DHT22;2927;49.366;8.530;2023-07-29T12:36:00;27.70;99.90
5802;DHT22;2927;49.366;8.530;2023-07-29T12:38:29;27.80;99.90
5802;DHT22;2927;49.366;8.530;2023-07-29T12:40:55;27.80;1.00
5802;DHT22;2927;49.366;8.530;2023-07-29T12:43:21;27.90;1.00
5802;DHT22;2927;49.366;8.530;2023-07-29T12:45:48;27.60;1.00
5802;DHT22;2927;49.366;8.530;2023-07-29T12:48:14;27.70;1.00
5802;DHT22;2927;49.366;8.530;2023-07-29T12:50:40;27.80;99.90
5802;DHT22;2927;49.366;8.530;2023-07-29T12:53:07;28.00;99.90
5802;DHT22;2927;49.366;8.530;2023-07-29T12:55:33;28.00;99.90
5802;DHT22;2927;49.366;8.530;2023-07-29T12:57:58;28.00;99.90
5802;DHT22;2927;49.366;8.530;2023-07-29T13:00:25;28.00;99.90
5802;DHT22;2927;49.366;8.530;2023-07-29T13:02:50;28.10;99.90
5802;DHT22;2927;49.366;8.530;2023-07-29T13:05:16;28.20;99.90
5802;DHT22;2927;49.366;8.530;2023-07-29T13:07:42;28.50;81.70
5802;DHT22;2927;49.366;8.530;2023-07-29T13:10:09;28.80;1.00
5802;DHT22;2927;49.366;8.530;2023-07-29T13:12:35;29.10;1.00
5802;DHT22;2927;49.366;8.530;2023-07-29T13:15:00;29.10;1.00
5802;DHT22;2927;49.366;8.530;2023-07-29T13:17:26;29.20;1.00
5802;DHT22;2927;49.366;8.530;2023-07-29T13:19:52;29.20;1.00
5802;DHT22;2927;49.366;8.530;2023-07-29T13:22:17;29.10;1.00
5802;DHT22;2927;49.366;8.530;2023-07-29T13:24:43;29.00;1.00
5802;DHT22;2927;49.366;8.530;2023-07-29T13:27:08;29.20;1.00
5802;DHT22;2927;49.366;8.530;2023-07-29T13:29:34;29.40;1.00
5802;DHT22;2927;49.366;8.530;2023-07-29T13:31:59;29.50;1.00
5802;DHT22;2927;49.366;8.530;2023-07-29T13:34:25;29.70;1.00
5802;DHT22;2927;49.366;8.530;2023-07-29T13:36:50;29.50;1.00
5802;DHT22;2927;49.366;8.530;2023-07-29T13:39:16;29.40;1.00
5802;DHT22;2927;49.366;8.530;2023-07-29T13:41:42;29.40;1.00
5802;DHT22;2927;49.366;8.530;2023-07-29T13:44:07;29.30;1.00
5802;DHT22;2927;49.366;8.530;2023-07-29T13:46:33;29.30;1.00
5802;DHT22;2927;49.366;8.530;2023-07-29T13:48:58;29.40;1.00
5802;DHT22;2927;49.366;8.530;2023-07-29T13:51:24;29.30;1.00
5802;DHT22;2927;49.366;8.530;2023-07-29T13:53:49;29.00;1.00
5802;DHT22;2927;49.366;8.530;2023-07-29T13:56:15;29.10;1.00
5802;DHT22;2927;49.366;8.530;2023-07-29T13:58:40;29.20;1.00
5802;DHT22;2927;49.366;8.530;2023-07-29T14:01:06;29.20;1.00
5802;DHT22;2927;49.366;8.530;2023-07-29T14:03:32;29.00;1.00
5802;DHT22;2927;49.366;8.530;2023-07-29T14:05:57;28.90;1.00
5802;DHT22;2927;49.366;8.530;2023-07-29T14:08:23;28.80;1.00
5802;DHT22;2927;49.366;8.530;2023-07-29T14:10:49;28.90;1.00
5802;DHT22;2927;49.366;8.530;2023-07-29T14:13:14;28.80;1.00
5802;DHT22;2927;49.366;8.530;2023-07-29T14:15:40;28.80;1.00
5802;DHT22;2927;49.366;8.530;2023-07-29T14:18:06;28.50;1.00
5802;DHT22;2927;49.366;8.530;2023-07-29T14:20:32;28.40;1.00
5802;DHT22;2927;49.366;8.530;2023-07-29T14:22:58;28.30;1.00
5802;DHT22;2927;49.366;8.530;2023-07-29T14:25:23;28.30;1.00
5802;DHT22;2927;49.366;8.530;2023-07-29T14:27:49;28.30;1.00
5802;DHT22;2927;49.366;8.530;2023-07-29T14:30:14;28.40;1.00
5802;DHT22;2927;49.366;8.530;2023-07-29T14:32:40;28.30;1.00
5802;DHT22;2927;49.366;8.530;2023-07-29T14:35:06;28.30;1.00
5802;DHT22;2927;49.366;8.530;2023-07-29T14:37:33;28.40;1.00
5802;DHT22;2927;49.366;8.530;2023-07-29T14:39:59;28.40;1.00
5802;DHT22;2927;49.366;8.530;2023-07-29T14:42:25;28.30;1.00
5802;DHT22;2927;49.366;8.530;2023-07-29T14:44:50;28.30;1.00
5802;DHT22;2927;49.366;8.530;2023-07-29T14:47:16;28.30;1.00
5802;DHT22;2927;49.366;8.530;2023-07-29T14:49:41;28.50;1.00
5802;DHT22;2927;49.366;8.530;2023-07-29T14:52:07;28.50;1.00
5802;DHT22;2927;49.366;8.530;2023-07-29T14:54:33;28.80;1.00
5802;DHT22;2927;49.366;8.530;2023-07-29T14:56:58;28.80;1.00
5802;DHT22;2927;49.366;8.530;2023-07-29T14:59:24;28.80;1.00
5802;DHT22;2927;49.366;8.530;2023-07-29T15:01:49;28.70;1.00
5802;DHT22;2927;49.366;8.530;2023-07-29T15:04:15;28.30;1.00
5802;DHT22;2927;49.366;8.530;2023-07-29T15:06:41;28.10;1.00
5802;DHT22;2927;49.366;8.530;2023-07-29T15:09:07;28.20;1.00
5802;DHT22;2927;49.366;8.530;2023-07-29T15:11:32;28.30;1.00
5802;DHT22;2927;49.366;8.530;2023-07-29T15:13:59;28.40;1.00
5802;DHT22;2927;49.366;8.530;2023-07-29T15:16:24;28.30;1.00
5802;DHT22;2927;49.366;8.530;2023-07-29T15:18:51;28.20;1.00
5802;DHT22;2927;49.366;8.530;2023-07-29T15:21:16;28.00;1.00
5802;DHT22;2927;49.366;8.530;2023-07-29T15:23:43;28.00;1.00
5802;DHT22;2927;49.366;8.530;2023-07-29T15:26:09;28.00;1.00
5802;DHT22;2927;49.366;8.530;2023-07-29T15:28:35;28.10;1.00
5802;DHT22;2927;49.366;8.530;2023-07-29T15:31:00;28.10;1.00
5802;DHT22;2927;49.366;8.530;2023-07-29T15:33:26;28.00;1.00
5802;DHT22;2927;49.366;8.530;2023-07-29T15:35:52;28.00;1.00
5802;DHT22;2927;49.366;8.530;2023-07-29T15:38:18;28.00;1.00
5802;DHT22;2927;49.366;8.530;2023-07-29T15:40:44;28.10;1.00
5802;DHT22;2927;49.366;8.530;2023-07-29T15:43:09;28.30;1.00
5802;DHT22;2927;49.366;8.530;2023-07-29T15:45:35;28.30;1.00
5802;DHT22;2927;49.366;8.530;2023-07-29T15:48:01;28.60;1.00
5802;DHT22;2927;49.366;8.530;2023-07-29T15:50:28;28.80;1.00
5802;DHT22;2927;49.366;8.530;2023-07-29T15:52:53;28.80;1.00
5802;DHT22;2927;49.366;8.530;2023-07-29T15:55:20;28.30;1.00
5802;DHT22;2927;49.366;8.530;2023-07-29T15:57:45;28.00;1.00
5802;DHT22;2927;49.366;8.530;2023-07-29T16:00:11;27.70;1.00
5802;DHT22;2927;49.366;8.530;2023-07-29T16:02:38;27.50;1.00
5802;DHT22;2927;49.366;8.530;2023-07-29T16:05:05;27.40;1.00
5802;DHT22;2927;49.366;8.530;2023-07-29T16:07:31;27.30;1.00
5802;DHT22;2927;49.366;8.530;2023-07-29T16:09:56;27.20;88.60
5802;DHT22;2927;49.366;8.530;2023-07-29T16:12:22;27.20;99.90